Bayfield, CO

4:37 AM MST on December 04, 2016 (GMT -0700)
Bayfield Weather | | Change Station

Elev 7047 ft 37.25 °N, 107.60 °W | Updated 11 seconds ago

Scattered Clouds
Scattered Clouds
17.1 °F
Feels Like 17 °F
N
0.0
Wind Variable Wind from NNW
Gusts 0.0 mph

Today
High -- | Low -- °F
--% Chance of Precip.
Yesterday
High -- | Low -- °F
Precip. -- in
Pressure 30.13 in
Visibility 10.0 miles
Clouds Scattered Clouds 500 ft
Windchill 17 °F
Dew Point 14 °F
Humidity 88%
Rainfall 0.00 in
Snow Depth Not available.
7:08 AM 4:52 PM
Waxing Crescent, 22% visible
SPECI KDRO 041103Z AUTO 00000KT 10SM SCT005 M09/M11 A3013 RMK AO2 T10891111
Pressure 30.13 in
Visibility 10.0 miles
Clouds Scattered Clouds 500 ft
Windchill 17 °F
Dew Point 14 °F
Humidity 88%
Rainfall 0.00 in
Snow Depth Not available.
7:08 AM 4:52 PM
Waxing Crescent, 22% visible
SPECI KDRO 041103Z AUTO 00000KT 10SM SCT005 M09/M11 A3013 RMK AO2 T10891111

10-Day Weather Forecast

Almanac

Astronomy

Dec. 04, 2016 Rise Set
Actual Time
Civil Twilight
Nautical Twilight
Astronomical Twilight
Moon
Length of Visible Light
Length of Day
Tomorrow will be .
, % of the Moon is Illuminated

Today's Extremes

State Highs State Lows

Community

WunderPhotos

Upload Photos

1,955,593 photos uploaded!

WunderBlog® & News

Nearby

Air Quality

  Air Quality AQ Index Pollutant
Not available.

Snow Depth

Station Depth Elevation

Earthquake Activity

City Distance Mag. Time & Date
Minimum magnitude displayed is 2.5.

Coastal Water Temperatures

Place Temperature

Stations

Nearby Weather Stations

Station Location Temp. Windchill Dew Point Humidity Wind Precip. Elev Updated Type
                   

Watches & Warnings

There are currently no watches in effect.